Rechercher aéroport 
image banner adimage banner adimage banner ad
image banner ad

O61 - Cameron Park

Situé à Cameron Park, United States

ICAO - O61, IATA -

Données fournies par Airmate  

Information générale

Coordonnées: N38°41'2" W120°59'15"
Élévation : 1287 feet MSL.
Variation magnétique : 16° East
Voir autres Aéroports à California

Données opérationnelles

Special qualification required
Heure actuelle UTC:
Heure actuelle locale:
Météo à : KPVF - Placerville ( 21 km )
METAR: KPVF 211955Z AUTO 21009G14KT 190V250 10SM CLR 32/00 A3022 RMK AO1
Voir NOTAMs / SUP AIP / TFR affectant cet aéroport [VIEW]
Fréquences de communication: [VIEW]

Pistes:

Identifiant RWYQFULongueur (ft)Largeur (ft)SurfaceLDA (ft)
13143°405150ASPH
31323°405150ASPH

Coordonnées de l'aéroport

Adresse: Cameron Park United States

Autres services d'aviation

Écoles de pilotage

Flightime

Flightime
HIGHFLY4U@gmail.com+1(530)677-6474

Max Aero

Max Aero
fly@max.aero+1(530)350-5052

Vue satellite de O61